sensor_id;sensor_type;location;lat;lon;timestamp;P1;durP1;ratioP1;P2;durP2;ratioP2
56824;SDS011;42705;50.326;18.772;2023-06-22T00:03:46;11.60;;;7.60;;
56824;SDS011;42705;50.326;18.772;2023-06-22T00:09:07;13.60;;;9.10;;
56824;SDS011;42705;50.326;18.772;2023-06-22T00:14:28;14.80;;;8.60;;
56824;SDS011;42705;50.326;18.772;2023-06-22T00:19:49;12.60;;;9.00;;
56824;SDS011;42705;50.326;18.772;2023-06-22T00:25:14;15.40;;;9.00;;
56824;SDS011;42705;50.326;18.772;2023-06-22T00:30:35;16.40;;;9.40;;
56824;SDS011;42705;50.326;18.772;2023-06-22T00:35:56;12.30;;;9.30;;
56824;SDS011;42705;50.326;18.772;2023-06-22T00:41:18;11.50;;;8.00;;
56824;SDS011;42705;50.326;18.772;2023-06-22T00:46:39;13.70;;;8.50;;
56824;SDS011;42705;50.326;18.772;2023-06-22T00:52:00;12.40;;;9.10;;
56824;SDS011;42705;50.326;18.772;2023-06-22T00:57:22;11.80;;;8.70;;
56824;SDS011;42705;50.326;18.772;2023-06-22T01:02:49;15.50;;;9.10;;
56824;SDS011;42705;50.326;18.772;2023-06-22T01:14:06;11.70;;;7.60;;
56824;SDS011;42705;50.326;18.772;2023-06-22T01:19:43;11.30;;;7.70;;
56824;SDS011;42705;50.326;18.772;2023-06-22T01:25:20;13.00;;;8.40;;
56824;SDS011;42705;50.326;18.772;2023-06-22T01:30:47;17.00;;;8.80;;
56824;SDS011;42705;50.326;18.772;2023-06-22T01:36:10;12.50;;;6.90;;
56824;SDS011;42705;50.326;18.772;2023-06-22T01:41:35;14.60;;;8.20;;
56824;SDS011;42705;50.326;18.772;2023-06-22T01:46:58;13.20;;;8.00;;
56824;SDS011;42705;50.326;18.772;2023-06-22T01:52:20;12.20;;;7.20;;
56824;SDS011;42705;50.326;18.772;2023-06-22T01:57:42;14.70;;;7.80;;
56824;SDS011;42705;50.326;18.772;2023-06-22T02:03:05;13.90;;;7.80;;
56824;SDS011;42705;50.326;18.772;2023-06-22T02:08:35;14.50;;;8.60;;
56824;SDS011;42705;50.326;18.772;2023-06-22T02:14:02;15.70;;;7.90;;
56824;SDS011;42705;50.326;18.772;2023-06-22T02:19:26;13.20;;;7.90;;
56824;SDS011;42705;50.326;18.772;2023-06-22T02:24:47;17.20;;;9.10;;
56824;SDS011;42705;50.326;18.772;2023-06-22T02:30:09;13.20;;;8.40;;
56824;SDS011;42705;50.326;18.772;2023-06-22T02:35:33;12.10;;;8.20;;
56824;SDS011;42705;50.326;18.772;2023-06-22T02:40:56;16.10;;;7.80;;
56824;SDS011;42705;50.326;18.772;2023-06-22T02:46:19;17.10;;;8.40;;
56824;SDS011;42705;50.326;18.772;2023-06-22T02:51:42;16.60;;;9.60;;
56824;SDS011;42705;50.326;18.772;2023-06-22T02:57:07;14.00;;;8.60;;
56824;SDS011;42705;50.326;18.772;2023-06-22T03:02:35;12.00;;;8.40;;
56824;SDS011;42705;50.326;18.772;2023-06-22T03:07:56;14.90;;;8.70;;
56824;SDS011;42705;50.326;18.772;2023-06-22T03:13:17;13.10;;;8.30;;
56824;SDS011;42705;50.326;18.772;2023-06-22T03:18:39;17.60;;;8.90;;
56824;SDS011;42705;50.326;18.772;2023-06-22T03:24:00;15.40;;;8.90;;
56824;SDS011;42705;50.326;18.772;2023-06-22T03:29:21;14.90;;;8.80;;
56824;SDS011;42705;50.326;18.772;2023-06-22T03:34:42;17.70;;;9.60;;
56824;SDS011;42705;50.326;18.772;2023-06-22T03:40:08;15.30;;;10.50;;
56824;SDS011;42705;50.326;18.772;2023-06-22T03:51:18;14.40;;;11.50;;
56824;SDS011;42705;50.326;18.772;2023-06-22T03:56:39;18.80;;;12.50;;
56824;SDS011;42705;50.326;18.772;2023-06-22T04:02:00;17.70;;;12.00;;
56824;SDS011;42705;50.326;18.772;2023-06-22T04:07:21;16.90;;;12.60;;
56824;SDS011;42705;50.326;18.772;2023-06-22T04:12:43;20.10;;;13.00;;
56824;SDS011;42705;50.326;18.772;2023-06-22T04:18:04;17.20;;;12.70;;
56824;SDS011;42705;50.326;18.772;2023-06-22T04:23:25;19.70;;;13.90;;
56824;SDS011;42705;50.326;18.772;2023-06-22T04:28:47;21.70;;;14.50;;
56824;SDS011;42705;50.326;18.772;2023-06-22T04:34:12;20.10;;;14.60;;
56824;SDS011;42705;50.326;18.772;2023-06-22T04:39:37;21.00;;;15.30;;
56824;SDS011;42705;50.326;18.772;2023-06-22T04:44:58;26.90;;;17.90;;
56824;SDS011;42705;50.326;18.772;2023-06-22T04:50:19;24.60;;;17.00;;
56824;SDS011;42705;50.326;18.772;2023-06-22T04:55:42;25.10;;;18.30;;
56824;SDS011;42705;50.326;18.772;2023-06-22T05:01:07;22.50;;;18.10;;
56824;SDS011;42705;50.326;18.772;2023-06-22T05:06:29;20.60;;;17.60;;
56824;SDS011;42705;50.326;18.772;2023-06-22T05:11:50;22.80;;;19.70;;
56824;SDS011;42705;50.326;18.772;2023-06-22T05:17:12;23.90;;;19.30;;
56824;SDS011;42705;50.326;18.772;2023-06-22T05:22:34;24.10;;;19.20;;
56824;SDS011;42705;50.326;18.772;2023-06-22T05:27:55;20.40;;;17.10;;
56824;SDS011;42705;50.326;18.772;2023-06-22T05:33:16;20.10;;;18.00;;
56824;SDS011;42705;50.326;18.772;2023-06-22T05:38:38;20.00;;;17.90;;
56824;SDS011;42705;50.326;18.772;2023-06-22T05:43:59;22.00;;;17.70;;
56824;SDS011;42705;50.326;18.772;2023-06-22T05:49:21;18.60;;;16.60;;
56824;SDS011;42705;50.326;18.772;2023-06-22T05:54:43;20.40;;;16.60;;
56824;SDS011;42705;50.326;18.772;2023-06-22T06:00:05;19.30;;;17.30;;
56824;SDS011;42705;50.326;18.772;2023-06-22T06:05:32;20.80;;;17.40;;
56824;SDS011;42705;50.326;18.772;2023-06-22T06:10:54;18.40;;;16.40;;
56824;SDS011;42705;50.326;18.772;2023-06-22T06:16:15;17.90;;;16.00;;
56824;SDS011;42705;50.326;18.772;2023-06-22T06:21:36;19.40;;;17.40;;
56824;SDS011;42705;50.326;18.772;2023-06-22T06:26:58;18.90;;;17.00;;
56824;SDS011;42705;50.326;18.772;2023-06-22T06:32:19;20.60;;;16.50;;
56824;SDS011;42705;50.326;18.772;2023-06-22T06:37:41;17.80;;;15.00;;
56824;SDS011;42705;50.326;18.772;2023-06-22T06:43:04;16.70;;;14.20;;
56824;SDS011;42705;50.326;18.772;2023-06-22T06:48:25;15.50;;;13.90;;
56824;SDS011;42705;50.326;18.772;2023-06-22T06:53:46;18.50;;;14.80;;
56824;SDS011;42705;50.326;18.772;2023-06-22T06:59:07;14.00;;;11.50;;
56824;SDS011;42705;50.326;18.772;2023-06-22T07:04:29;11.00;;;9.70;;
56824;SDS011;42705;50.326;18.772;2023-06-22T07:09:50;10.10;;;9.10;;
56824;SDS011;42705;50.326;18.772;2023-06-22T07:15:11;10.00;;;8.80;;
56824;SDS011;42705;50.326;18.772;2023-06-22T07:25:54;9.60;;;8.60;;
56824;SDS011;42705;50.326;18.772;2023-06-22T07:31:15;9.50;;;8.60;;
56824;SDS011;42705;50.326;18.772;2023-06-22T07:36:36;11.00;;;9.20;;
56824;SDS011;42705;50.326;18.772;2023-06-22T07:41:57;13.70;;;8.60;;
56824;SDS011;42705;50.326;18.772;2023-06-22T07:47:18;11.10;;;8.40;;
56824;SDS011;42705;50.326;18.772;2023-06-22T07:52:40;11.20;;;8.40;;
56824;SDS011;42705;50.326;18.772;2023-06-22T07:58:01;11.40;;;8.90;;
56824;SDS011;42705;50.326;18.772;2023-06-22T08:03:22;9.70;;;8.70;;
56824;SDS011;42705;50.326;18.772;2023-06-22T08:08:43;10.30;;;9.00;;
56824;SDS011;42705;50.326;18.772;2023-06-22T08:14:04;11.10;;;8.50;;
56824;SDS011;42705;50.326;18.772;2023-06-22T08:19:25;14.20;;;8.10;;
56824;SDS011;42705;50.326;18.772;2023-06-22T08:24:46;10.80;;;8.70;;
56824;SDS011;42705;50.326;18.772;2023-06-22T08:30:09;9.00;;;8.00;;
56824;SDS011;42705;50.326;18.772;2023-06-22T08:35:31;9.60;;;8.30;;
56824;SDS011;42705;50.326;18.772;2023-06-22T08:40:52;11.30;;;8.20;;
56824;SDS011;42705;50.326;18.772;2023-06-22T08:46:13;9.30;;;8.10;;
56824;SDS011;42705;50.326;18.772;2023-06-22T08:51:35;9.10;;;7.90;;
56824;SDS011;42705;50.326;18.772;2023-06-22T08:56:56;8.00;;;7.00;;
56824;SDS011;42705;50.326;18.772;2023-06-22T09:02:17;8.60;;;7.20;;
56824;SDS011;42705;50.326;18.772;2023-06-22T09:07:40;8.50;;;7.60;;
56824;SDS011;42705;50.326;18.772;2023-06-22T09:13:01;8.20;;;7.40;;
56824;SDS011;42705;50.326;18.772;2023-06-22T09:18:22;7.90;;;7.10;;
56824;SDS011;42705;50.326;18.772;2023-06-22T09:23:43;8.30;;;7.50;;
56824;SDS011;42705;50.326;18.772;2023-06-22T09:29:07;10.10;;;6.90;;
56824;SDS011;42705;50.326;18.772;2023-06-22T09:34:28;8.30;;;7.40;;
56824;SDS011;42705;50.326;18.772;2023-06-22T09:39:49;8.00;;;7.30;;
56824;SDS011;42705;50.326;18.772;2023-06-22T09:45:11;9.50;;;6.90;;
56824;SDS011;42705;50.326;18.772;2023-06-22T09:50:32;8.70;;;6.80;;
56824;SDS011;42705;50.326;18.772;2023-06-22T09:55:53;8.10;;;7.40;;
56824;SDS011;42705;50.326;18.772;2023-06-22T10:01:14;8.20;;;7.40;;
56824;SDS011;42705;50.326;18.772;2023-06-22T10:06:35;11.90;;;8.70;;
56824;SDS011;42705;50.326;18.772;2023-06-22T10:11:56;11.60;;;7.10;;
56824;SDS011;42705;50.326;18.772;2023-06-22T10:17:17;7.70;;;7.00;;
56824;SDS011;42705;50.326;18.772;2023-06-22T10:22:40;8.20;;;6.70;;
56824;SDS011;42705;50.326;18.772;2023-06-22T10:28:02;7.50;;;6.80;;
56824;SDS011;42705;50.326;18.772;2023-06-22T10:33:23;7.70;;;6.90;;
56824;SDS011;42705;50.326;18.772;2023-06-22T10:38:45;7.90;;;6.10;;
56824;SDS011;42705;50.326;18.772;2023-06-22T10:44:16;7.10;;;6.40;;
56824;SDS011;42705;50.326;18.772;2023-06-22T10:49:38;7.60;;;6.80;;
56824;SDS011;42705;50.326;18.772;2023-06-22T10:55:00;7.10;;;6.40;;
56824;SDS011;42705;50.326;18.772;2023-06-22T11:00:21;6.70;;;6.00;;
56824;SDS011;42705;50.326;18.772;2023-06-22T11:05:42;7.10;;;6.40;;
56824;SDS011;42705;50.326;18.772;2023-06-22T11:11:03;6.50;;;5.90;;
56824;SDS011;42705;50.326;18.772;2023-06-22T11:21:46;7.70;;;6.40;;
56824;SDS011;42705;50.326;18.772;2023-06-22T11:27:07;7.40;;;6.30;;
56824;SDS011;42705;50.326;18.772;2023-06-22T11:32:28;7.50;;;6.50;;
56824;SDS011;42705;50.326;18.772;2023-06-22T11:43:10;6.80;;;6.10;;
56824;SDS011;42705;50.326;18.772;2023-06-22T11:48:31;7.70;;;5.40;;
56824;SDS011;42705;50.326;18.772;2023-06-22T11:53:53;6.50;;;5.40;;
56824;SDS011;42705;50.326;18.772;2023-06-22T11:59:15;7.10;;;5.50;;
56824;SDS011;42705;50.326;18.772;2023-06-22T12:04:36;5.90;;;5.40;;
56824;SDS011;42705;50.326;18.772;2023-06-22T12:09:57;6.10;;;5.50;;
56824;SDS011;42705;50.326;18.772;2023-06-22T12:15:18;6.40;;;5.90;;
56824;SDS011;42705;50.326;18.772;2023-06-22T12:20:40;8.20;;;6.00;;
56824;SDS011;42705;50.326;18.772;2023-06-22T12:26:01;7.10;;;5.60;;
56824;SDS011;42705;50.326;18.772;2023-06-22T12:31:22;6.00;;;5.40;;
56824;SDS011;42705;50.326;18.772;2023-06-22T12:36:43;6.70;;;6.10;;
56824;SDS011;42705;50.326;18.772;2023-06-22T12:42:05;6.30;;;5.70;;
56824;SDS011;42705;50.326;18.772;2023-06-22T12:47:29;6.20;;;5.70;;
56824;SDS011;42705;50.326;18.772;2023-06-22T12:52:50;6.00;;;5.30;;
56824;SDS011;42705;50.326;18.772;2023-06-22T12:58:11;8.40;;;5.90;;
56824;SDS011;42705;50.326;18.772;2023-06-22T13:03:32;6.50;;;5.40;;
56824;SDS011;42705;50.326;18.772;2023-06-22T13:08:53;5.70;;;5.20;;
56824;SDS011;42705;50.326;18.772;2023-06-22T13:14:15;6.30;;;5.70;;
56824;SDS011;42705;50.326;18.772;2023-06-22T13:19:37;5.90;;;5.40;;
56824;SDS011;42705;50.326;18.772;2023-06-22T13:24:58;6.00;;;5.40;;
56824;SDS011;42705;50.326;18.772;2023-06-22T13:30:20;5.80;;;5.10;;
56824;SDS011;42705;50.326;18.772;2023-06-22T13:35:42;5.60;;;4.70;;
56824;SDS011;42705;50.326;18.772;2023-06-22T13:41:04;5.30;;;4.60;;
56824;SDS011;42705;50.326;18.772;2023-06-22T13:46:25;5.20;;;4.80;;
56824;SDS011;42705;50.326;18.772;2023-06-22T13:51:46;4.60;;;4.30;;
56824;SDS011;42705;50.326;18.772;2023-06-22T13:57:08;4.50;;;4.20;;
56824;SDS011;42705;50.326;18.772;2023-06-22T14:02:30;5.00;;;3.80;;
56824;SDS011;42705;50.326;18.772;2023-06-22T14:07:51;4.20;;;3.90;;
56824;SDS011;42705;50.326;18.772;2023-06-22T14:13:12;3.50;;;3.20;;
56824;SDS011;42705;50.326;18.772;2023-06-22T14:18:33;4.00;;;3.70;;
56824;SDS011;42705;50.326;18.772;2023-06-22T14:23:55;3.70;;;3.40;;
56824;SDS011;42705;50.326;18.772;2023-06-22T14:29:16;3.80;;;3.50;;
56824;SDS011;42705;50.326;18.772;2023-06-22T14:34:37;3.50;;;3.20;;
56824;SDS011;42705;50.326;18.772;2023-06-22T14:40:00;3.90;;;3.50;;
56824;SDS011;42705;50.326;18.772;2023-06-22T14:45:21;3.70;;;3.40;;
56824;SDS011;42705;50.326;18.772;2023-06-22T14:50:42;3.60;;;3.30;;
56824;SDS011;42705;50.326;18.772;2023-06-22T14:56:03;4.10;;;3.70;;
56824;SDS011;42705;50.326;18.772;2023-06-22T15:01:25;3.30;;;3.10;;
56824;SDS011;42705;50.326;18.772;2023-06-22T15:06:46;3.20;;;3.00;;
56824;SDS011;42705;50.326;18.772;2023-06-22T15:12:07;4.20;;;3.50;;
56824;SDS011;42705;50.326;18.772;2023-06-22T15:17:32;3.90;;;3.30;;
56824;SDS011;42705;50.326;18.772;2023-06-22T15:22:53;3.30;;;3.10;;
56824;SDS011;42705;50.326;18.772;2023-06-22T15:28:14;3.00;;;2.80;;
56824;SDS011;42705;50.326;18.772;2023-06-22T15:33:36;3.40;;;3.20;;
56824;SDS011;42705;50.326;18.772;2023-06-22T15:38:57;3.40;;;3.00;;
56824;SDS011;42705;50.326;18.772;2023-06-22T15:44:19;3.10;;;3.00;;
56824;SDS011;42705;50.326;18.772;2023-06-22T15:49:40;3.70;;;3.20;;
56824;SDS011;42705;50.326;18.772;2023-06-22T15:55:01;3.50;;;3.20;;
56824;SDS011;42705;50.326;18.772;2023-06-22T16:00:22;3.80;;;3.50;;
56824;SDS011;42705;50.326;18.772;2023-06-22T16:05:44;3.80;;;3.50;;
56824;SDS011;42705;50.326;18.772;2023-06-22T16:11:05;5.60;;;3.60;;
56824;SDS011;42705;50.326;18.772;2023-06-22T16:16:28;3.90;;;3.60;;
56824;SDS011;42705;50.326;18.772;2023-06-22T16:21:50;3.70;;;3.40;;
56824;SDS011;42705;50.326;18.772;2023-06-22T16:27:11;4.00;;;3.70;;
56824;SDS011;42705;50.326;18.772;2023-06-22T16:32:32;4.70;;;3.70;;
56824;SDS011;42705;50.326;18.772;2023-06-22T16:37:54;4.20;;;3.80;;
56824;SDS011;42705;50.326;18.772;2023-06-22T16:43:15;4.80;;;4.10;;
56824;SDS011;42705;50.326;18.772;2023-06-22T16:48:37;4.20;;;3.90;;
56824;SDS011;42705;50.326;18.772;2023-06-22T16:53:58;4.00;;;3.70;;
56824;SDS011;42705;50.326;18.772;2023-06-22T16:59:19;4.20;;;3.90;;
56824;SDS011;42705;50.326;18.772;2023-06-22T17:04:41;4.20;;;3.70;;
56824;SDS011;42705;50.326;18.772;2023-06-22T17:10:06;5.00;;;3.90;;
56824;SDS011;42705;50.326;18.772;2023-06-22T17:15:30;4.90;;;4.50;;
56824;SDS011;42705;50.326;18.772;2023-06-22T17:20:53;8.60;;;4.90;;
56824;SDS011;42705;50.326;18.772;2023-06-22T17:26:14;4.90;;;4.30;;
56824;SDS011;42705;50.326;18.772;2023-06-22T17:31:39;7.30;;;4.90;;
56824;SDS011;42705;50.326;18.772;2023-06-22T17:37:19;4.80;;;4.30;;
56824;SDS011;42705;50.326;18.772;2023-06-22T17:42:40;5.40;;;4.90;;
56824;SDS011;42705;50.326;18.772;2023-06-22T17:48:01;5.70;;;4.70;;
56824;SDS011;42705;50.326;18.772;2023-06-22T17:53:25;7.30;;;5.60;;
56824;SDS011;42705;50.326;18.772;2023-06-22T17:58:52;11.60;;;6.00;;
56824;SDS011;42705;50.326;18.772;2023-06-22T18:04:14;9.40;;;6.60;;
56824;SDS011;42705;50.326;18.772;2023-06-22T18:09:39;7.20;;;6.50;;
56824;SDS011;42705;50.326;18.772;2023-06-22T18:15:01;7.00;;;5.80;;
56824;SDS011;42705;50.326;18.772;2023-06-22T18:20:24;8.70;;;6.20;;
56824;SDS011;42705;50.326;18.772;2023-06-22T18:25:47;7.40;;;6.10;;
56824;SDS011;42705;50.326;18.772;2023-06-22T18:31:09;7.40;;;6.40;;
56824;SDS011;42705;50.326;18.772;2023-06-22T18:36:37;7.20;;;6.50;;
56824;SDS011;42705;50.326;18.772;2023-06-22T18:42:02;7.00;;;5.80;;
56824;SDS011;42705;50.326;18.772;2023-06-22T18:47:26;7.40;;;6.60;;
56824;SDS011;42705;50.326;18.772;2023-06-22T18:53:00;7.70;;;7.00;;
56824;SDS011;42705;50.326;18.772;2023-06-22T18:58:24;9.10;;;6.40;;
56824;SDS011;42705;50.326;18.772;2023-06-22T19:03:49;8.30;;;6.70;;
56824;SDS011;42705;50.326;18.772;2023-06-22T19:09:14;9.90;;;7.60;;
56824;SDS011;42705;50.326;18.772;2023-06-22T19:14:36;10.40;;;7.20;;
56824;SDS011;42705;50.326;18.772;2023-06-22T19:20:00;10.90;;;8.50;;
56824;SDS011;42705;50.326;18.772;2023-06-22T19:25:27;11.20;;;8.70;;
56824;SDS011;42705;50.326;18.772;2023-06-22T19:30:55;14.00;;;8.70;;
56824;SDS011;42705;50.326;18.772;2023-06-22T19:36:19;11.80;;;7.90;;
56824;SDS011;42705;50.326;18.772;2023-06-22T19:41:42;9.50;;;7.50;;
56824;SDS011;42705;50.326;18.772;2023-06-22T19:47:06;9.10;;;7.60;;
56824;SDS011;42705;50.326;18.772;2023-06-22T19:58:00;8.80;;;7.30;;
56824;SDS011;42705;50.326;18.772;2023-06-22T20:03:29;10.50;;;8.00;;
56824;SDS011;42705;50.326;18.772;2023-06-22T20:08:55;11.00;;;7.80;;
56824;SDS011;42705;50.326;18.772;2023-06-22T20:14:20;9.40;;;8.20;;
56824;SDS011;42705;50.326;18.772;2023-06-22T20:19:42;11.60;;;7.90;;
56824;SDS011;42705;50.326;18.772;2023-06-22T20:25:04;9.50;;;7.80;;
56824;SDS011;42705;50.326;18.772;2023-06-22T20:30:26;9.80;;;8.00;;
56824;SDS011;42705;50.326;18.772;2023-06-22T20:35:47;10.10;;;8.60;;
56824;SDS011;42705;50.326;18.772;2023-06-22T20:41:10;13.50;;;9.70;;
56824;SDS011;42705;50.326;18.772;2023-06-22T20:46:31;10.40;;;9.20;;
56824;SDS011;42705;50.326;18.772;2023-06-22T20:51:52;11.10;;;8.60;;
56824;SDS011;42705;50.326;18.772;2023-06-22T20:57:14;9.20;;;7.90;;
56824;SDS011;42705;50.326;18.772;2023-06-22T21:02:35;10.40;;;8.30;;
56824;SDS011;42705;50.326;18.772;2023-06-22T21:07:56;11.10;;;8.80;;
56824;SDS011;42705;50.326;18.772;2023-06-22T21:13:17;9.10;;;8.20;;
56824;SDS011;42705;50.326;18.772;2023-06-22T21:18:39;11.10;;;8.10;;
56824;SDS011;42705;50.326;18.772;2023-06-22T21:24:01;11.20;;;9.10;;
56824;SDS011;42705;50.326;18.772;2023-06-22T21:29:22;10.50;;;9.40;;
56824;SDS011;42705;50.326;18.772;2023-06-22T21:34:43;12.30;;;9.00;;
56824;SDS011;42705;50.326;18.772;2023-06-22T21:40:05;10.40;;;8.60;;
56824;SDS011;42705;50.326;18.772;2023-06-22T21:45:27;10.90;;;8.80;;
56824;SDS011;42705;50.326;18.772;2023-06-22T21:50:48;10.20;;;8.70;;
56824;SDS011;42705;50.326;18.772;2023-06-22T21:56:09;9.60;;;8.60;;
56824;SDS011;42705;50.326;18.772;2023-06-22T22:01:30;11.70;;;9.70;;
56824;SDS011;42705;50.326;18.772;2023-06-22T22:06:51;11.00;;;8.50;;
56824;SDS011;42705;50.326;18.772;2023-06-22T22:12:12;11.80;;;8.40;;
56824;SDS011;42705;50.326;18.772;2023-06-22T22:17:33;12.70;;;10.00;;
56824;SDS011;42705;50.326;18.772;2023-06-22T22:22:55;8.90;;;8.00;;
56824;SDS011;42705;50.326;18.772;2023-06-22T22:28:16;10.90;;;8.80;;
56824;SDS011;42705;50.326;18.772;2023-06-22T22:33:41;10.00;;;8.90;;
56824;SDS011;42705;50.326;18.772;2023-06-22T22:39:02;9.70;;;8.10;;
56824;SDS011;42705;50.326;18.772;2023-06-22T22:44:24;11.30;;;9.10;;
56824;SDS011;42705;50.326;18.772;2023-06-22T22:49:45;10.10;;;9.10;;
56824;SDS011;42705;50.326;18.772;2023-06-22T22:55:07;10.00;;;8.80;;
56824;SDS011;42705;50.326;18.772;2023-06-22T23:00:29;10.10;;;8.60;;
56824;SDS011;42705;50.326;18.772;2023-06-22T23:05:51;9.70;;;8.70;;
56824;SDS011;42705;50.326;18.772;2023-06-22T23:11:12;9.20;;;8.30;;
56824;SDS011;42705;50.326;18.772;2023-06-22T23:16:34;13.80;;;8.70;;
56824;SDS011;42705;50.326;18.772;2023-06-22T23:21:55;9.90;;;8.20;;
56824;SDS011;42705;50.326;18.772;2023-06-22T23:27:16;11.10;;;8.30;;
56824;SDS011;42705;50.326;18.772;2023-06-22T23:32:37;10.30;;;8.30;;
56824;SDS011;42705;50.326;18.772;2023-06-22T23:37:59;9.00;;;8.10;;
56824;SDS011;42705;50.326;18.772;2023-06-22T23:43:20;11.50;;;8.50;;
56824;SDS011;42705;50.326;18.772;2023-06-22T23:48:41;9.30;;;8.40;;
56824;SDS011;42705;50.326;18.772;2023-06-22T23:54:05;9.00;;;8.10;;
56824;SDS011;42705;50.326;18.772;2023-06-22T23:59:26;10.40;;;8.20;;
